sensor_id;sensor_type;location;lat;lon;timestamp;P1;durP1;ratioP1;P2;durP2;ratioP2
37067;SDS011;22982;42.848;25.468;2023-04-01T00:03:07;17.98;;;10.00;;
37067;SDS011;22982;42.848;25.468;2023-04-01T00:08:10;16.40;;;10.70;;
37067;SDS011;22982;42.848;25.468;2023-04-01T00:13:12;14.15;;;9.18;;
37067;SDS011;22982;42.848;25.468;2023-04-01T00:18:16;15.43;;;9.60;;
37067;SDS011;22982;42.848;25.468;2023-04-01T00:23:19;16.77;;;9.13;;
37067;SDS011;22982;42.848;25.468;2023-04-01T00:28:22;14.00;;;8.93;;
37067;SDS011;22982;42.848;25.468;2023-04-01T00:33:24;14.60;;;9.70;;
37067;SDS011;22982;42.848;25.468;2023-04-01T00:38:27;18.15;;;9.32;;
37067;SDS011;22982;42.848;25.468;2023-04-01T00:43:29;17.38;;;9.43;;
37067;SDS011;22982;42.848;25.468;2023-04-01T00:48:36;14.98;;;8.90;;
37067;SDS011;22982;42.848;25.468;2023-04-01T00:53:42;13.98;;;9.13;;
37067;SDS011;22982;42.848;25.468;2023-04-01T00:58:55;14.18;;;8.23;;
37067;SDS011;22982;42.848;25.468;2023-04-01T01:04:02;13.68;;;8.48;;
37067;SDS011;22982;42.848;25.468;2023-04-01T01:14:15;12.95;;;8.25;;
37067;SDS011;22982;42.848;25.468;2023-04-01T01:19:31;12.00;;;7.90;;
37067;SDS011;22982;42.848;25.468;2023-04-01T01:35:27;18.20;;;10.20;;
37067;SDS011;22982;42.848;25.468;2023-04-01T01:40:41;15.85;;;9.55;;
37067;SDS011;22982;42.848;25.468;2023-04-01T01:45:48;19.55;;;9.80;;
37067;SDS011;22982;42.848;25.468;2023-04-01T01:50:54;29.50;;;12.27;;
37067;SDS011;22982;42.848;25.468;2023-04-01T01:55:56;43.83;;;20.38;;
37067;SDS011;22982;42.848;25.468;2023-04-01T02:01:01;33.25;;;15.20;;
37067;SDS011;22982;42.848;25.468;2023-04-01T02:06:07;33.00;;;16.17;;
37067;SDS011;22982;42.848;25.468;2023-04-01T02:11:15;44.33;;;20.05;;
37067;SDS011;22982;42.848;25.468;2023-04-01T02:21:51;38.08;;;18.20;;
37067;SDS011;22982;42.848;25.468;2023-04-01T02:27:01;36.92;;;17.20;;
37067;SDS011;22982;42.848;25.468;2023-04-01T02:32:05;43.42;;;19.65;;
37067;SDS011;22982;42.848;25.468;2023-04-01T02:37:08;43.45;;;19.27;;
37067;SDS011;22982;42.848;25.468;2023-04-01T02:42:12;37.55;;;18.55;;
37067;SDS011;22982;42.848;25.468;2023-04-01T02:47:15;29.83;;;16.88;;
37067;SDS011;22982;42.848;25.468;2023-04-01T02:52:18;31.98;;;16.83;;
37067;SDS011;22982;42.848;25.468;2023-04-01T02:57:20;31.38;;;15.60;;
37067;SDS011;22982;42.848;25.468;2023-04-01T03:02:23;26.33;;;15.18;;
37067;SDS011;22982;42.848;25.468;2023-04-01T03:07:26;27.27;;;13.95;;
37067;SDS011;22982;42.848;25.468;2023-04-01T03:12:28;23.15;;;13.27;;
37067;SDS011;22982;42.848;25.468;2023-04-01T03:17:32;23.25;;;13.63;;
37067;SDS011;22982;42.848;25.468;2023-04-01T03:22:34;23.17;;;12.82;;
37067;SDS011;22982;42.848;25.468;2023-04-01T03:27:38;17.88;;;12.82;;
37067;SDS011;22982;42.848;25.468;2023-04-01T03:32:44;19.50;;;12.15;;
37067;SDS011;22982;42.848;25.468;2023-04-01T03:37:47;21.13;;;11.85;;
37067;SDS011;22982;42.848;25.468;2023-04-01T03:42:49;21.13;;;11.65;;
37067;SDS011;22982;42.848;25.468;2023-04-01T03:47:52;23.05;;;10.95;;
37067;SDS011;22982;42.848;25.468;2023-04-01T03:52:55;21.90;;;12.02;;
37067;SDS011;22982;42.848;25.468;2023-04-01T03:57:59;17.58;;;11.43;;
37067;SDS011;22982;42.848;25.468;2023-04-01T04:03:03;23.80;;;12.70;;
37067;SDS011;22982;42.848;25.468;2023-04-01T04:08:09;23.50;;;11.32;;
37067;SDS011;22982;42.848;25.468;2023-04-01T04:13:12;17.13;;;11.65;;
37067;SDS011;22982;42.848;25.468;2023-04-01T04:18:22;19.20;;;11.60;;
37067;SDS011;22982;42.848;25.468;2023-04-01T04:23:25;19.48;;;11.25;;
37067;SDS011;22982;42.848;25.468;2023-04-01T04:28:28;20.10;;;13.65;;
37067;SDS011;22982;42.848;25.468;2023-04-01T04:33:32;21.77;;;11.52;;
37067;SDS011;22982;42.848;25.468;2023-04-01T04:38:35;18.27;;;11.32;;
37067;SDS011;22982;42.848;25.468;2023-04-01T04:43:39;17.33;;;11.90;;
37067;SDS011;22982;42.848;25.468;2023-04-01T04:48:42;18.35;;;12.02;;
37067;SDS011;22982;42.848;25.468;2023-04-01T04:53:45;23.05;;;13.68;;
37067;SDS011;22982;42.848;25.468;2023-04-01T04:58:48;22.45;;;12.85;;
37067;SDS011;22982;42.848;25.468;2023-04-01T05:03:55;21.63;;;13.40;;
37067;SDS011;22982;42.848;25.468;2023-04-01T05:08:58;18.85;;;12.15;;
37067;SDS011;22982;42.848;25.468;2023-04-01T05:14:00;14.02;;;9.93;;
37067;SDS011;22982;42.848;25.468;2023-04-01T05:19:05;20.83;;;10.95;;
37067;SDS011;22982;42.848;25.468;2023-04-01T05:24:08;15.93;;;10.73;;
37067;SDS011;22982;42.848;25.468;2023-04-01T05:29:12;14.95;;;10.68;;
37067;SDS011;22982;42.848;25.468;2023-04-01T05:34:16;19.70;;;13.82;;
37067;SDS011;22982;42.848;25.468;2023-04-01T05:39:19;20.23;;;13.27;;
37067;SDS011;22982;42.848;25.468;2023-04-01T05:44:21;23.33;;;15.50;;
37067;SDS011;22982;42.848;25.468;2023-04-01T05:49:35;27.40;;;15.93;;
37067;SDS011;22982;42.848;25.468;2023-04-01T05:54:38;27.42;;;16.67;;
37067;SDS011;22982;42.848;25.468;2023-04-01T05:59:41;26.50;;;14.07;;
37067;SDS011;22982;42.848;25.468;2023-04-01T06:04:45;20.35;;;13.07;;
37067;SDS011;22982;42.848;25.468;2023-04-01T06:09:48;36.50;;;19.88;;
37067;SDS011;22982;42.848;25.468;2023-04-01T06:25:24;43.72;;;24.60;;
37067;SDS011;22982;42.848;25.468;2023-04-01T06:30:43;46.30;;;24.52;;
37067;SDS011;22982;42.848;25.468;2023-04-01T06:36:08;32.80;;;22.40;;
37067;SDS011;22982;42.848;25.468;2023-04-01T06:53:02;11.70;;;5.93;;
37067;SDS011;22982;42.848;25.468;2023-04-01T07:04:18;47.28;;;29.35;;
37067;SDS011;22982;42.848;25.468;2023-04-01T07:09:40;70.43;;;44.28;;
37067;SDS011;22982;42.848;25.468;2023-04-01T07:15:40;45.03;;;26.00;;
37067;SDS011;22982;42.848;25.468;2023-04-01T07:20:48;29.30;;;16.77;;
37067;SDS011;22982;42.848;25.468;2023-04-01T07:25:52;23.60;;;11.05;;
37067;SDS011;22982;42.848;25.468;2023-04-01T07:31:42;30.98;;;17.20;;
37067;SDS011;22982;42.848;25.468;2023-04-01T07:36:52;42.00;;;28.75;;
37067;SDS011;22982;42.848;25.468;2023-04-01T08:08:18;15.35;;;12.00;;
37067;SDS011;22982;42.848;25.468;2023-04-01T08:13:52;15.25;;;7.97;;
37067;SDS011;22982;42.848;25.468;2023-04-01T08:30:01;6.70;;;4.37;;
37067;SDS011;22982;42.848;25.468;2023-04-01T08:40:41;5.85;;;4.47;;
37067;SDS011;22982;42.848;25.468;2023-04-01T09:45:37;9.02;;;2.75;;
37067;SDS011;22982;42.848;25.468;2023-04-01T10:40:29;8.00;;;4.47;;
37067;SDS011;22982;42.848;25.468;2023-04-01T11:03:21;7.05;;;2.78;;
37067;SDS011;22982;42.848;25.468;2023-04-01T11:41:30;10.25;;;3.65;;
37067;SDS011;22982;42.848;25.468;2023-04-01T11:53:17;9.85;;;4.47;;
37067;SDS011;22982;42.848;25.468;2023-04-01T12:03:36;17.17;;;9.93;;
37067;SDS011;22982;42.848;25.468;2023-04-01T12:19:24;30.08;;;17.77;;
37067;SDS011;22982;42.848;25.468;2023-04-01T12:41:14;12.57;;;3.75;;
37067;SDS011;22982;42.848;25.468;2023-04-01T12:51:54;9.63;;;4.28;;
37067;SDS011;22982;42.848;25.468;2023-04-01T12:57:14;16.27;;;8.68;;
37067;SDS011;22982;42.848;25.468;2023-04-01T13:19:53;13.43;;;4.28;;
37067;SDS011;22982;42.848;25.468;2023-04-01T13:30:24;10.80;;;3.42;;
37067;SDS011;22982;42.848;25.468;2023-04-01T13:35:38;11.98;;;3.72;;
37067;SDS011;22982;42.848;25.468;2023-04-01T13:52:27;11.98;;;4.80;;
37067;SDS011;22982;42.848;25.468;2023-04-01T14:20:01;13.68;;;4.97;;
37067;SDS011;22982;42.848;25.468;2023-04-01T14:25:27;23.98;;;6.38;;
37067;SDS011;22982;42.848;25.468;2023-04-01T14:30:52;21.88;;;9.90;;
37067;SDS011;22982;42.848;25.468;2023-04-01T14:36:29;6.95;;;4.78;;
37067;SDS011;22982;42.848;25.468;2023-04-01T14:52:54;18.38;;;15.05;;
37067;SDS011;22982;42.848;25.468;2023-04-01T14:58:14;4.82;;;3.65;;
37067;SDS011;22982;42.848;25.468;2023-04-01T15:08:32;36.95;;;24.23;;
37067;SDS011;22982;42.848;25.468;2023-04-01T15:13:51;7.97;;;6.60;;
37067;SDS011;22982;42.848;25.468;2023-04-01T15:24:19;10.45;;;6.72;;
37067;SDS011;22982;42.848;25.468;2023-04-01T15:51:27;2.13;;;1.48;;
37067;SDS011;22982;42.848;25.468;2023-04-01T16:03:09;2.10;;;1.80;;
37067;SDS011;22982;42.848;25.468;2023-04-01T16:07:56;7.82;;;5.70;;
37067;SDS011;22982;42.848;25.468;2023-04-01T16:23:26;2.30;;;1.80;;
37067;SDS011;22982;42.848;25.468;2023-04-01T16:29:12;9.10;;;7.53;;
37067;SDS011;22982;42.848;25.468;2023-04-01T16:34:17;3.05;;;2.05;;
37067;SDS011;22982;42.848;25.468;2023-04-01T16:39:41;3.90;;;2.40;;
37067;SDS011;22982;42.848;25.468;2023-04-01T16:44:50;2.10;;;1.90;;
37067;SDS011;22982;42.848;25.468;2023-04-01T16:50:13;2.55;;;1.98;;
37067;SDS011;22982;42.848;25.468;2023-04-01T16:55:33;4.07;;;2.20;;
37067;SDS011;22982;42.848;25.468;2023-04-01T17:00:53;5.53;;;3.78;;
37067;SDS011;22982;42.848;25.468;2023-04-01T17:27:44;16.70;;;12.48;;
37067;SDS011;22982;42.848;25.468;2023-04-01T17:59:49;22.33;;;16.85;;
37067;SDS011;22982;42.848;25.468;2023-04-01T18:21:40;23.75;;;14.90;;
37067;SDS011;22982;42.848;25.468;2023-04-01T18:54:21;57.58;;;38.28;;
37067;SDS011;22982;42.848;25.468;2023-04-01T18:59:38;4.13;;;2.83;;
37067;SDS011;22982;42.848;25.468;2023-04-01T19:04:45;2.67;;;1.90;;
37067;SDS011;22982;42.848;25.468;2023-04-01T19:09:57;11.30;;;6.45;;
37067;SDS011;22982;42.848;25.468;2023-04-01T19:20:41;2.78;;;1.30;;
37067;SDS011;22982;42.848;25.468;2023-04-01T19:25:51;1.58;;;1.20;;
37067;SDS011;22982;42.848;25.468;2023-04-01T19:36:58;34.17;;;16.65;;
37067;SDS011;22982;42.848;25.468;2023-04-01T19:42:28;15.95;;;8.02;;
37067;SDS011;22982;42.848;25.468;2023-04-01T19:58:38;4.70;;;3.05;;
37067;SDS011;22982;42.848;25.468;2023-04-01T20:04:44;5.00;;;1.63;;
37067;SDS011;22982;42.848;25.468;2023-04-01T20:15:40;18.77;;;9.27;;
37067;SDS011;22982;42.848;25.468;2023-04-01T20:21:47;7.95;;;4.72;;
37067;SDS011;22982;42.848;25.468;2023-04-01T20:26:58;2.75;;;2.42;;
37067;SDS011;22982;42.848;25.468;2023-04-01T20:54:47;2.45;;;2.00;;
37067;SDS011;22982;42.848;25.468;2023-04-01T21:05:35;3.97;;;2.67;;
37067;SDS011;22982;42.848;25.468;2023-04-01T21:33:00;10.40;;;5.95;;
37067;SDS011;22982;42.848;25.468;2023-04-01T21:38:23;7.28;;;5.22;;
37067;SDS011;22982;42.848;25.468;2023-04-01T22:00:33;4.63;;;2.97;;
37067;SDS011;22982;42.848;25.468;2023-04-01T22:05:39;6.00;;;4.63;;
37067;SDS011;22982;42.848;25.468;2023-04-01T22:26:58;7.80;;;5.20;;
37067;SDS011;22982;42.848;25.468;2023-04-01T22:32:16;7.85;;;4.15;;
37067;SDS011;22982;42.848;25.468;2023-04-01T22:48:29;15.18;;;9.60;;
37067;SDS011;22982;42.848;25.468;2023-04-01T22:58:41;3.60;;;3.00;;
37067;SDS011;22982;42.848;25.468;2023-04-01T23:03:52;5.38;;;3.47;;
37067;SDS011;22982;42.848;25.468;2023-04-01T23:40:53;2.65;;;2.45;;
37067;SDS011;22982;42.848;25.468;2023-04-01T23:45:58;3.30;;;3.00;;
37067;SDS011;22982;42.848;25.468;2023-04-01T23:51:48;5.93;;;2.22;;
37067;SDS011;22982;42.848;25.468;2023-04-01T23:56:42;4.13;;;2.08;;
